Ames, Spain
Current Conditions -  °F | °C
As of 10:30 AM on Monday 20 Oct 2014 (Local Time) from LEST Reporting Station
Clear Clear  
Wind Chill: 64°   Ceiling: Unl
Heat Index: 64°   Visibility: 6mi
Dew Point: 59°   Wind: 3mph
Humidity: 83%   Direction: 140°SE
Pressure: 30.18"   Gusts: NA
Location:  42.9°N, 8.63°W
Report Text: LEST 200830Z 14003KT CAVOK 18/15 Q1022 NOSIG
Loading
Personal Weather Stations






























Interactive Weather Map
Tropical Storm Tracking
New forecast layout! Learn more

10-Day Weather Forecast

Advertisements
Track Severe Weather on mobile